sensor_id;sensor_type;location;lat;lon;timestamp;pressure;altitude;pressure_sealevel;temperature;humidity
11448;BME280;43755;49.736;8.734;2024-02-21T00:01:16;98770.25;;;6.67;100.00
11448;BME280;43755;49.736;8.734;2024-02-21T00:03:18;98769.47;;;6.61;100.00
11448;BME280;43755;49.736;8.734;2024-02-21T00:05:19;98763.31;;;6.63;100.00
11448;BME280;43755;49.736;8.734;2024-02-21T00:07:21;98760.72;;;6.62;100.00
11448;BME280;43755;49.736;8.734;2024-02-21T00:09:23;98759.81;;;6.64;100.00
11448;BME280;43755;49.736;8.734;2024-02-21T00:11:26;98751.03;;;6.65;100.00
11448;BME280;43755;49.736;8.734;2024-02-21T00:13:27;98744.91;;;6.65;100.00
11448;BME280;43755;49.736;8.734;2024-02-21T00:15:28;98738.72;;;6.67;100.00
11448;BME280;43755;49.736;8.734;2024-02-21T00:17:30;98733.44;;;6.67;100.00
11448;BME280;43755;49.736;8.734;2024-02-21T00:19:31;98742.31;;;6.60;100.00
11448;BME280;43755;49.736;8.734;2024-02-21T00:21:33;98737.91;;;6.62;100.00
11448;BME280;43755;49.736;8.734;2024-02-21T00:23:34;98730.97;;;6.58;100.00
11448;BME280;43755;49.736;8.734;2024-02-21T00:25:35;98742.31;;;6.62;100.00
11448;BME280;43755;49.736;8.734;2024-02-21T00:27:37;98728.28;;;6.63;100.00
11448;BME280;43755;49.736;8.734;2024-02-21T00:29:39;98731.78;;;6.62;100.00
11448;BME280;43755;49.736;8.734;2024-02-21T00:31:41;98731.88;;;6.57;100.00
11448;BME280;43755;49.736;8.734;2024-02-21T00:33:45;98729.25;;;6.55;100.00
11448;BME280;43755;49.736;8.734;2024-02-21T00:35:46;98727.47;;;6.57;100.00
11448;BME280;43755;49.736;8.734;2024-02-21T00:37:48;98717.88;;;6.55;100.00
11448;BME280;43755;49.736;8.734;2024-02-21T00:39:49;98716.13;;;6.54;100.00
11448;BME280;43755;49.736;8.734;2024-02-21T00:41:51;98709.94;;;6.58;100.00
11448;BME280;43755;49.736;8.734;2024-02-21T00:43:55;98704.63;;;6.63;100.00
11448;BME280;43755;49.736;8.734;2024-02-21T00:45:55;98691.47;;;6.61;100.00
11448;BME280;43755;49.736;8.734;2024-02-21T00:47:57;98694.09;;;6.61;100.00
11448;BME280;43755;49.736;8.734;2024-02-21T00:49:59;98694.19;;;6.56;100.00
11448;BME280;43755;49.736;8.734;2024-02-21T00:52:00;98689.72;;;6.62;100.00
11448;BME280;43755;49.736;8.734;2024-02-21T00:54:02;98694.09;;;6.63;100.00
11448;BME280;43755;49.736;8.734;2024-02-21T00:56:04;98681.84;;;6.62;100.00
11448;BME280;43755;49.736;8.734;2024-02-21T00:58:06;98671.31;;;6.62;100.00
11448;BME280;43755;49.736;8.734;2024-02-21T01:00:10;98668.72;;;6.60;100.00
11448;BME280;43755;49.736;8.734;2024-02-21T01:02:12;98660.88;;;6.58;100.00
11448;BME280;43755;49.736;8.734;2024-02-21T01:04:14;98653.84;;;6.59;100.00
11448;BME280;43755;49.736;8.734;2024-02-21T01:06:15;98645.00;;;6.63;100.00
11448;BME280;43755;49.736;8.734;2024-02-21T01:08:16;98634.59;;;6.57;100.00
11448;BME280;43755;49.736;8.734;2024-02-21T01:10:18;98634.53;;;6.60;100.00
11448;BME280;43755;49.736;8.734;2024-02-21T01:12:19;98627.59;;;6.57;100.00
11448;BME280;43755;49.736;8.734;2024-02-21T01:14:21;98631.94;;;6.58;100.00
11448;BME280;43755;49.736;8.734;2024-02-21T01:16:25;98627.50;;;6.61;100.00
11448;BME280;43755;49.736;8.734;2024-02-21T01:18:27;98628.44;;;6.60;100.00
11448;BME280;43755;49.736;8.734;2024-02-21T01:20:28;98639.78;;;6.60;100.00
11448;BME280;43755;49.736;8.734;2024-02-21T01:22:30;98645.16;;;6.54;100.00
11448;BME280;43755;49.736;8.734;2024-02-21T01:24:30;98639.94;;;6.51;100.00
11448;BME280;43755;49.736;8.734;2024-02-21T01:26:32;98644.34;;;6.50;100.00
11448;BME280;43755;49.736;8.734;2024-02-21T01:28:34;98642.59;;;6.49;100.00
11448;BME280;43755;49.736;8.734;2024-02-21T01:30:37;98639.94;;;6.51;100.00
11448;BME280;43755;49.736;8.734;2024-02-21T01:32:39;98641.69;;;6.52;100.00
11448;BME280;43755;49.736;8.734;2024-02-21T01:34:41;98637.44;;;6.45;100.00
11448;BME280;43755;49.736;8.734;2024-02-21T01:36:43;98637.38;;;6.48;100.00
11448;BME280;43755;49.736;8.734;2024-02-21T01:38:45;98633.03;;;6.47;100.00
11448;BME280;43755;49.736;8.734;2024-02-21T01:40:47;98637.53;;;6.39;100.00
11448;BME280;43755;49.736;8.734;2024-02-21T01:42:48;98640.22;;;6.36;100.00
11448;BME280;43755;49.736;8.734;2024-02-21T01:44:49;98641.09;;;6.35;100.00
11448;BME280;43755;49.736;8.734;2024-02-21T01:46:52;98645.50;;;6.33;100.00
11448;BME280;43755;49.736;8.734;2024-02-21T01:48:54;98635.94;;;6.30;100.00
11448;BME280;43755;49.736;8.734;2024-02-21T01:50:56;98628.94;;;6.29;100.00
11448;BME280;43755;49.736;8.734;2024-02-21T01:52:58;98628.06;;;6.29;100.00
11448;BME280;43755;49.736;8.734;2024-02-21T01:55:01;98618.47;;;6.25;100.00
11448;BME280;43755;49.736;8.734;2024-02-21T01:57:03;98616.78;;;6.21;100.00
11448;BME280;43755;49.736;8.734;2024-02-21T01:59:05;98625.59;;;6.18;100.00
11448;BME280;43755;49.736;8.734;2024-02-21T02:01:07;98618.59;;;6.17;100.00
11448;BME280;43755;49.736;8.734;2024-02-21T02:03:09;98626.50;;;6.15;100.00
11448;BME280;43755;49.736;8.734;2024-02-21T02:05:18;98633.50;;;6.15;100.00
11448;BME280;43755;49.736;8.734;2024-02-21T02:07:21;98624.75;;;6.14;100.00
11448;BME280;43755;49.736;8.734;2024-02-21T02:09:23;98630.03;;;6.13;100.00
11448;BME280;43755;49.736;8.734;2024-02-21T02:11:24;98630.88;;;6.15;100.00
11448;BME280;43755;49.736;8.734;2024-02-21T02:13:26;98630.00;;;6.14;100.00
11448;BME280;43755;49.736;8.734;2024-02-21T02:15:37;98623.91;;;6.14;100.00
11448;BME280;43755;49.736;8.734;2024-02-21T02:17:38;98619.50;;;6.16;100.00
11448;BME280;43755;49.736;8.734;2024-02-21T02:19:39;98623.81;;;6.18;100.00
11448;BME280;43755;49.736;8.734;2024-02-21T02:21:46;98610.66;;;6.22;100.00
11448;BME280;43755;49.736;8.734;2024-02-21T02:23:49;98603.66;;;6.21;100.00
11448;BME280;43755;49.736;8.734;2024-02-21T02:25:51;98588.75;;;6.23;100.00
11448;BME280;43755;49.736;8.734;2024-02-21T02:27:53;98587.00;;;6.20;100.00
11448;BME280;43755;49.736;8.734;2024-02-21T02:29:55;98583.56;;;6.18;100.00
11448;BME280;43755;49.736;8.734;2024-02-21T02:31:56;98579.22;;;6.14;100.00
11448;BME280;43755;49.736;8.734;2024-02-21T02:33:58;98586.19;;;6.18;100.00
11448;BME280;43755;49.736;8.734;2024-02-21T02:36:00;98580.97;;;6.16;100.00
11448;BME280;43755;49.736;8.734;2024-02-21T02:38:02;98572.97;;;6.23;100.00
11448;BME280;43755;49.736;8.734;2024-02-21T02:40:06;98569.56;;;6.16;100.00
11448;BME280;43755;49.736;8.734;2024-02-21T02:42:08;98561.72;;;6.13;100.00
11448;BME280;43755;49.736;8.734;2024-02-21T02:44:10;98567.03;;;6.11;100.00
11448;BME280;43755;49.736;8.734;2024-02-21T02:46:12;98560.91;;;6.11;100.00
11448;BME280;43755;49.736;8.734;2024-02-21T02:48:13;98560.13;;;6.04;100.00
11448;BME280;43755;49.736;8.734;2024-02-21T02:50:15;98551.38;;;6.04;100.00
11448;BME280;43755;49.736;8.734;2024-02-21T02:52:16;98557.44;;;6.09;100.00
11448;BME280;43755;49.736;8.734;2024-02-21T02:54:18;98553.00;;;6.12;100.00
11448;BME280;43755;49.736;8.734;2024-02-21T02:56:21;98554.81;;;6.09;100.00
11448;BME280;43755;49.736;8.734;2024-02-21T02:58:23;98560.94;;;6.09;100.00
11448;BME280;43755;49.736;8.734;2024-02-21T03:00:24;98557.31;;;6.16;100.00
11448;BME280;43755;49.736;8.734;2024-02-21T03:02:25;98556.53;;;6.10;100.00
11448;BME280;43755;49.736;8.734;2024-02-21T03:04:26;98554.00;;;6.05;100.00
11448;BME280;43755;49.736;8.734;2024-02-21T03:06:28;98554.91;;;6.03;100.00
11448;BME280;43755;49.736;8.734;2024-02-21T03:08:29;98547.88;;;6.03;100.00
11448;BME280;43755;49.736;8.734;2024-02-21T03:10:31;98547.94;;;6.00;100.00
11448;BME280;43755;49.736;8.734;2024-02-21T03:12:34;98547.13;;;5.97;100.00
11448;BME280;43755;49.736;8.734;2024-02-21T03:14:36;98543.59;;;5.99;100.00
11448;BME280;43755;49.736;8.734;2024-02-21T03:16:37;98548.88;;;5.96;100.00
11448;BME280;43755;49.736;8.734;2024-02-21T03:18:39;98541.78;;;6.01;100.00
11448;BME280;43755;49.736;8.734;2024-02-21T03:20:40;98532.94;;;6.07;100.00
11448;BME280;43755;49.736;8.734;2024-02-21T03:22:41;98525.13;;;6.04;100.00
11448;BME280;43755;49.736;8.734;2024-02-21T03:24:43;98521.63;;;6.03;100.00
11448;BME280;43755;49.736;8.734;2024-02-21T03:26:45;98514.72;;;5.96;100.00
11448;BME280;43755;49.736;8.734;2024-02-21T03:28:48;98515.69;;;5.91;100.00
11448;BME280;43755;49.736;8.734;2024-02-21T03:30:50;98511.28;;;5.94;100.00
11448;BME280;43755;49.736;8.734;2024-02-21T03:32:52;98517.53;;;5.87;100.00
11448;BME280;43755;49.736;8.734;2024-02-21T03:34:53;98514.94;;;5.83;100.00
11448;BME280;43755;49.736;8.734;2024-02-21T03:36:55;98517.50;;;5.84;100.00
11448;BME280;43755;49.736;8.734;2024-02-21T03:38:56;98520.13;;;5.87;100.00
11448;BME280;43755;49.736;8.734;2024-02-21T03:40:57;98519.25;;;5.87;100.00
11448;BME280;43755;49.736;8.734;2024-02-21T03:42:59;98520.13;;;5.86;100.00
11448;BME280;43755;49.736;8.734;2024-02-21T03:45:02;98524.56;;;5.82;100.00
11448;BME280;43755;49.736;8.734;2024-02-21T03:47:04;98519.28;;;5.84;100.00
11448;BME280;43755;49.736;8.734;2024-02-21T03:49:06;98510.59;;;5.80;100.00
11448;BME280;43755;49.736;8.734;2024-02-21T03:51:07;98509.63;;;5.84;100.00
11448;BME280;43755;49.736;8.734;2024-02-21T03:53:09;98499.13;;;5.86;100.00
11448;BME280;43755;49.736;8.734;2024-02-21T03:55:11;98494.75;;;5.85;100.00
11448;BME280;43755;49.736;8.734;2024-02-21T03:57:12;98508.84;;;5.81;100.00
11448;BME280;43755;49.736;8.734;2024-02-21T03:59:14;98513.22;;;5.80;100.00
11448;BME280;43755;49.736;8.734;2024-02-21T04:01:17;98507.97;;;5.80;100.00
11448;BME280;43755;49.736;8.734;2024-02-21T04:03:20;98518.44;;;5.82;100.00
11448;BME280;43755;49.736;8.734;2024-02-21T04:05:23;98520.31;;;5.75;100.00
11448;BME280;43755;49.736;8.734;2024-02-21T04:07:25;98529.06;;;5.74;100.00
11448;BME280;43755;49.736;8.734;2024-02-21T04:09:27;98524.63;;;5.77;100.00
11448;BME280;43755;49.736;8.734;2024-02-21T04:11:28;98528.94;;;5.82;100.00
11448;BME280;43755;49.736;8.734;2024-02-21T04:13:30;98526.25;;;5.86;100.00
11448;BME280;43755;49.736;8.734;2024-02-21T04:15:31;98522.75;;;5.89;100.00
11448;BME280;43755;49.736;8.734;2024-02-21T04:17:34;98520.94;;;5.92;100.00
11448;BME280;43755;49.736;8.734;2024-02-21T04:19:36;98519.97;;;5.96;100.00
11448;BME280;43755;49.736;8.734;2024-02-21T04:21:38;98513.00;;;5.95;100.00
11448;BME280;43755;49.736;8.734;2024-02-21T04:23:40;98513.00;;;5.95;100.00
11448;BME280;43755;49.736;8.734;2024-02-21T04:25:42;98507.81;;;5.92;100.00
11448;BME280;43755;49.736;8.734;2024-02-21T04:27:43;98505.16;;;5.94;100.00
11448;BME280;43755;49.736;8.734;2024-02-21T04:29:45;98500.78;;;5.93;100.00
11448;BME280;43755;49.736;8.734;2024-02-21T04:31:47;98495.44;;;6.00;100.00
11448;BME280;43755;49.736;8.734;2024-02-21T04:33:49;98484.09;;;5.95;100.00
11448;BME280;43755;49.736;8.734;2024-02-21T04:35:51;98484.97;;;5.96;100.00
11448;BME280;43755;49.736;8.734;2024-02-21T04:37:55;98477.06;;;5.97;100.00
11448;BME280;43755;49.736;8.734;2024-02-21T04:39:56;98489.31;;;5.98;100.00
11448;BME280;43755;49.736;8.734;2024-02-21T04:41:58;98488.44;;;5.99;100.00
11448;BME280;43755;49.736;8.734;2024-02-21T04:44:00;98480.59;;;5.96;100.00
11448;BME280;43755;49.736;8.734;2024-02-21T04:46:04;98472.69;;;5.99;100.00
11448;BME280;43755;49.736;8.734;2024-02-21T04:48:06;98470.94;;;5.98;100.00
11448;BME280;43755;49.736;8.734;2024-02-21T04:50:09;98477.94;;;5.99;100.00
11448;BME280;43755;49.736;8.734;2024-02-21T04:52:11;98463.03;;;6.00;100.00
11448;BME280;43755;49.736;8.734;2024-02-21T04:54:13;98453.41;;;5.99;100.00
11448;BME280;43755;49.736;8.734;2024-02-21T04:56:15;98460.44;;;5.98;100.00
11448;BME280;43755;49.736;8.734;2024-02-21T04:58:17;98456.09;;;5.96;100.00
11448;BME280;43755;49.736;8.734;2024-02-21T05:00:18;98450.81;;;5.97;100.00
11448;BME280;43755;49.736;8.734;2024-02-21T05:02:20;98442.03;;;6.00;100.00
11448;BME280;43755;49.736;8.734;2024-02-21T05:04:24;98427.19;;;5.96;100.00
11448;BME280;43755;49.736;8.734;2024-02-21T05:06:27;98432.38;;;6.00;100.00
11448;BME280;43755;49.736;8.734;2024-02-21T05:08:29;98428.94;;;5.95;100.00
11448;BME280;43755;49.736;8.734;2024-02-21T05:10:30;98428.13;;;5.93;100.00
11448;BME280;43755;49.736;8.734;2024-02-21T05:12:32;98429.06;;;5.89;100.00
11448;BME280;43755;49.736;8.734;2024-02-21T05:14:34;98421.22;;;5.88;100.00
11448;BME280;43755;49.736;8.734;2024-02-21T05:16:35;98425.53;;;5.90;100.00
11448;BME280;43755;49.736;8.734;2024-02-21T05:18:36;98427.44;;;5.82;100.00
11448;BME280;43755;49.736;8.734;2024-02-21T05:20:38;98428.31;;;5.81;100.00
11448;BME280;43755;49.736;8.734;2024-02-21T05:22:40;98420.53;;;5.76;100.00
11448;BME280;43755;49.736;8.734;2024-02-21T05:24:41;98420.53;;;5.76;100.00
11448;BME280;43755;49.736;8.734;2024-02-21T05:26:43;98417.81;;;5.81;100.00
11448;BME280;43755;49.736;8.734;2024-02-21T05:28:45;98416.16;;;5.74;100.00
11448;BME280;43755;49.736;8.734;2024-02-21T05:30:46;98412.69;;;5.73;100.00
11448;BME280;43755;49.736;8.734;2024-02-21T05:32:48;98410.13;;;5.70;100.00
11448;BME280;43755;49.736;8.734;2024-02-21T05:34:50;98419.75;;;5.70;100.00
11448;BME280;43755;49.736;8.734;2024-02-21T05:36:51;98417.91;;;5.76;100.00
11448;BME280;43755;49.736;8.734;2024-02-21T05:38:54;98424.00;;;5.77;100.00
11448;BME280;43755;49.736;8.734;2024-02-21T05:40:56;98423.97;;;5.78;100.00
11448;BME280;43755;49.736;8.734;2024-02-21T05:42:58;98423.97;;;5.78;100.00
11448;BME280;43755;49.736;8.734;2024-02-21T05:44:59;98420.44;;;5.81;100.00
11448;BME280;43755;49.736;8.734;2024-02-21T05:47:01;98417.53;;;5.98;100.00
11448;BME280;43755;49.736;8.734;2024-02-21T05:49:03;98419.28;;;5.99;100.00
11448;BME280;43755;49.736;8.734;2024-02-21T05:51:04;98422.66;;;6.05;100.00
11448;BME280;43755;49.736;8.734;2024-02-21T05:53:06;98421.94;;;5.96;100.00
11448;BME280;43755;49.736;8.734;2024-02-21T05:55:09;98414.00;;;6.00;100.00
11448;BME280;43755;49.736;8.734;2024-02-21T05:57:11;98400.75;;;6.06;100.00
11448;BME280;43755;49.736;8.734;2024-02-21T05:59:13;98393.03;;;5.97;100.00
11448;BME280;43755;49.736;8.734;2024-02-21T06:01:13;98391.34;;;5.95;100.00
11448;BME280;43755;49.736;8.734;2024-02-21T06:03:15;98384.38;;;5.92;100.00
11448;BME280;43755;49.736;8.734;2024-02-21T06:05:17;98380.97;;;5.87;100.00
11448;BME280;43755;49.736;8.734;2024-02-21T06:07:19;98375.81;;;5.81;100.00
11448;BME280;43755;49.736;8.734;2024-02-21T06:09:20;98376.78;;;5.75;100.00
11448;BME280;43755;49.736;8.734;2024-02-21T06:11:23;98376.78;;;5.74;100.00
11448;BME280;43755;49.736;8.734;2024-02-21T06:13:25;98385.66;;;5.67;100.00
11448;BME280;43755;49.736;8.734;2024-02-21T06:15:26;98391.84;;;5.64;100.00
11448;BME280;43755;49.736;8.734;2024-02-21T06:17:27;98386.66;;;5.60;100.00
11448;BME280;43755;49.736;8.734;2024-02-21T06:19:28;98392.84;;;5.57;100.00
11448;BME280;43755;49.736;8.734;2024-02-21T06:21:30;98388.47;;;5.58;100.00
11448;BME280;43755;49.736;8.734;2024-02-21T06:23:31;98398.06;;;5.59;100.00
11448;BME280;43755;49.736;8.734;2024-02-21T06:25:33;98393.63;;;5.61;100.00
11448;BME280;43755;49.736;8.734;2024-02-21T06:27:36;98401.59;;;5.58;100.00
11448;BME280;43755;49.736;8.734;2024-02-21T06:29:38;98395.47;;;5.56;100.00
11448;BME280;43755;49.736;8.734;2024-02-21T06:31:39;98393.72;;;5.58;100.00
11448;BME280;43755;49.736;8.734;2024-02-21T06:33:41;98391.88;;;5.61;100.00
11448;BME280;43755;49.736;8.734;2024-02-21T06:35:43;98400.59;;;5.65;100.00
11448;BME280;43755;49.736;8.734;2024-02-21T06:37:47;98388.34;;;5.65;100.00
11448;BME280;43755;49.736;8.734;2024-02-21T06:39:51;98396.16;;;5.67;100.00
11448;BME280;43755;49.736;8.734;2024-02-21T06:41:52;98388.28;;;5.68;100.00
11448;BME280;43755;49.736;8.734;2024-02-21T06:43:56;98386.56;;;5.66;100.00
11448;BME280;43755;49.736;8.734;2024-02-21T06:45:57;98378.63;;;5.69;100.00
11448;BME280;43755;49.736;8.734;2024-02-21T06:47:59;98375.16;;;5.68;100.00
11448;BME280;43755;49.736;8.734;2024-02-21T06:50:01;98376.91;;;5.68;100.00
11448;BME280;43755;49.736;8.734;2024-02-21T06:52:03;98369.03;;;5.66;100.00
11448;BME280;43755;49.736;8.734;2024-02-21T06:54:05;98363.88;;;5.63;100.00
11448;BME280;43755;49.736;8.734;2024-02-21T06:56:07;98359.47;;;5.64;100.00
11448;BME280;43755;49.736;8.734;2024-02-21T06:58:09;98356.84;;;5.65;100.00
11448;BME280;43755;49.736;8.734;2024-02-21T07:00:15;98366.50;;;5.63;100.00
11448;BME280;43755;49.736;8.734;2024-02-21T07:02:16;98368.22;;;5.64;100.00
11448;BME280;43755;49.736;8.734;2024-02-21T07:04:18;98367.28;;;5.67;100.00
11448;BME280;43755;49.736;8.734;2024-02-21T07:06:20;98368.13;;;5.69;100.00
11448;BME280;43755;49.736;8.734;2024-02-21T07:08:21;98372.44;;;5.73;100.00
11448;BME280;43755;49.736;8.734;2024-02-21T07:10:23;98370.75;;;5.70;100.00
11448;BME280;43755;49.736;8.734;2024-02-21T07:12:25;98374.94;;;5.79;100.00
11448;BME280;43755;49.736;8.734;2024-02-21T07:14:27;98370.56;;;5.81;100.00
11448;BME280;43755;49.736;8.734;2024-02-21T07:16:30;98379.22;;;5.85;100.00
11448;BME280;43755;49.736;8.734;2024-02-21T07:18:32;98381.84;;;5.86;100.00
11448;BME280;43755;49.736;8.734;2024-02-21T07:20:34;98374.81;;;5.87;100.00
11448;BME280;43755;49.736;8.734;2024-02-21T07:22:37;98374.84;;;5.88;100.00
11448;BME280;43755;49.736;8.734;2024-02-21T07:24:39;98364.34;;;5.88;100.00
11448;BME280;43755;49.736;8.734;2024-02-21T07:26:41;98357.28;;;5.90;100.00
11448;BME280;43755;49.736;8.734;2024-02-21T07:28:43;98362.56;;;5.89;100.00
11448;BME280;43755;49.736;8.734;2024-02-21T07:30:45;98370.41;;;5.90;100.00
11448;BME280;43755;49.736;8.734;2024-02-21T07:32:50;98359.94;;;5.89;100.00
11448;BME280;43755;49.736;8.734;2024-02-21T07:34:51;98361.66;;;5.90;100.00
11448;BME280;43755;49.736;8.734;2024-02-21T07:36:52;98354.59;;;5.93;100.00
11448;BME280;43755;49.736;8.734;2024-02-21T07:38:54;98345.94;;;5.88;100.00
11448;BME280;43755;49.736;8.734;2024-02-21T07:40:54;98348.53;;;5.90;100.00
11448;BME280;43755;49.736;8.734;2024-02-21T07:42:56;98351.16;;;5.90;100.00
11448;BME280;43755;49.736;8.734;2024-02-21T07:44:58;98353.78;;;5.90;100.00
11448;BME280;43755;49.736;8.734;2024-02-21T07:46:59;98355.50;;;5.92;100.00
11448;BME280;43755;49.736;8.734;2024-02-21T07:49:01;98355.28;;;6.03;100.00
11448;BME280;43755;49.736;8.734;2024-02-21T07:51:04;98351.69;;;6.07;100.00
11448;BME280;43755;49.736;8.734;2024-02-21T07:53:05;98349.06;;;6.07;100.00
11448;BME280;43755;49.736;8.734;2024-02-21T07:55:07;98354.19;;;6.14;100.00
11448;BME280;43755;49.736;8.734;2024-02-21T07:57:10;98351.44;;;6.21;100.00
11448;BME280;43755;49.736;8.734;2024-02-21T07:59:11;98339.13;;;6.24;100.00
11448;BME280;43755;49.736;8.734;2024-02-21T08:01:18;98347.69;;;6.32;100.00
11448;BME280;43755;49.736;8.734;2024-02-21T08:03:20;98347.81;;;6.26;100.00
11448;BME280;43755;49.736;8.734;2024-02-21T08:05:23;98347.97;;;6.18;100.00
11448;BME280;43755;49.736;8.734;2024-02-21T08:07:24;98348.81;;;6.21;100.00
11448;BME280;43755;49.736;8.734;2024-02-21T08:09:25;98347.78;;;6.29;100.00
11448;BME280;43755;49.736;8.734;2024-02-21T08:11:27;98348.72;;;6.25;100.00
11448;BME280;43755;49.736;8.734;2024-02-21T08:13:28;98350.34;;;6.31;100.00
11448;BME280;43755;49.736;8.734;2024-02-21T08:15:30;98345.06;;;6.32;100.00
11448;BME280;43755;49.736;8.734;2024-02-21T08:17:32;98332.81;;;6.33;100.00
11448;BME280;43755;49.736;8.734;2024-02-21T08:19:33;98338.84;;;6.36;100.00
11448;BME280;43755;49.736;8.734;2024-02-21T08:21:36;98339.66;;;6.40;100.00
11448;BME280;43755;49.736;8.734;2024-02-21T08:23:38;98343.94;;;6.44;100.00
11448;BME280;43755;49.736;8.734;2024-02-21T08:25:40;98337.94;;;6.39;100.00
11448;BME280;43755;49.736;8.734;2024-02-21T08:27:42;98332.50;;;6.48;100.00
11448;BME280;43755;49.736;8.734;2024-02-21T08:29:45;98329.03;;;6.46;100.00
11448;BME280;43755;49.736;8.734;2024-02-21T08:31:46;98328.81;;;6.55;100.00
11448;BME280;43755;49.736;8.734;2024-02-21T08:33:48;98328.81;;;6.55;100.00
11448;BME280;43755;49.736;8.734;2024-02-21T08:35:49;98324.44;;;6.55;100.00
11448;BME280;43755;49.736;8.734;2024-02-21T08:37:52;98319.19;;;6.54;100.00
11448;BME280;43755;49.736;8.734;2024-02-21T08:39:53;98318.34;;;6.53;100.00
11448;BME280;43755;49.736;8.734;2024-02-21T08:41:55;98320.28;;;6.45;100.00
11448;BME280;43755;49.736;8.734;2024-02-21T08:43:57;98311.53;;;6.45;100.00
11448;BME280;43755;49.736;8.734;2024-02-21T08:45:59;98313.19;;;6.49;100.00
11448;BME280;43755;49.736;8.734;2024-02-21T08:48:00;98313.28;;;6.44;100.00
11448;BME280;43755;49.736;8.734;2024-02-21T08:50:02;98312.13;;;6.57;100.00
11448;BME280;43755;49.736;8.734;2024-02-21T08:52:07;98313.13;;;6.52;100.00
11448;BME280;43755;49.736;8.734;2024-02-21T08:54:10;98315.72;;;6.53;100.00
11448;BME280;43755;49.736;8.734;2024-02-21T08:56:10;98310.47;;;6.53;100.00
11448;BME280;43755;49.736;8.734;2024-02-21T08:58:12;98306.16;;;6.49;100.00
11448;BME280;43755;49.736;8.734;2024-02-21T09:00:16;98301.72;;;6.53;100.00
11448;BME280;43755;49.736;8.734;2024-02-21T09:02:17;98308.75;;;6.51;100.00
11448;BME280;43755;49.736;8.734;2024-02-21T09:04:19;98304.13;;;6.62;100.00
11448;BME280;43755;49.736;8.734;2024-02-21T09:06:21;98299.63;;;6.67;100.00
11448;BME280;43755;49.736;8.734;2024-02-21T09:08:22;98300.44;;;6.71;100.00
11448;BME280;43755;49.736;8.734;2024-02-21T09:10:25;98296.09;;;6.70;100.00
11448;BME280;43755;49.736;8.734;2024-02-21T09:12:27;98291.56;;;6.75;100.00
11448;BME280;43755;49.736;8.734;2024-02-21T09:14:29;98295.22;;;6.69;100.00
11448;BME280;43755;49.736;8.734;2024-02-21T09:16:31;98281.97;;;6.72;100.00
11448;BME280;43755;49.736;8.734;2024-02-21T09:18:33;98281.13;;;6.72;100.00
11448;BME280;43755;49.736;8.734;2024-02-21T09:20:34;98279.94;;;6.85;100.00
11448;BME280;43755;49.736;8.734;2024-02-21T09:22:36;98275.63;;;6.82;100.00
11448;BME280;43755;49.736;8.734;2024-02-21T09:24:40;98273.53;;;6.96;100.00
11448;BME280;43755;49.736;8.734;2024-02-21T09:26:42;98260.50;;;6.90;100.00
11448;BME280;43755;49.736;8.734;2024-02-21T09:28:43;98266.34;;;7.03;100.00
11448;BME280;43755;49.736;8.734;2024-02-21T09:30:45;98264.63;;;7.02;100.00
11448;BME280;43755;49.736;8.734;2024-02-21T09:32:47;98255.56;;;7.14;100.00
11448;BME280;43755;49.736;8.734;2024-02-21T09:34:48;98268.63;;;7.18;100.00
11448;BME280;43755;49.736;8.734;2024-02-21T09:36:50;98262.19;;;7.30;100.00
11448;BME280;43755;49.736;8.734;2024-02-21T09:38:52;98254.06;;;7.37;100.00
11448;BME280;43755;49.736;8.734;2024-02-21T09:40:59;98248.06;;;7.32;100.00
11448;BME280;43755;49.736;8.734;2024-02-21T09:43:04;98246.09;;;7.40;100.00
11448;BME280;43755;49.736;8.734;2024-02-21T09:45:08;98244.88;;;7.54;100.00
11448;BME280;43755;49.736;8.734;2024-02-21T09:47:19;98252.78;;;7.54;100.00
11448;BME280;43755;49.736;8.734;2024-02-21T09:49:30;98253.34;;;7.65;100.00
11448;BME280;43755;49.736;8.734;2024-02-21T09:51:34;98248.09;;;7.65;100.00
11448;BME280;43755;49.736;8.734;2024-02-21T09:53:37;98249.78;;;7.66;100.00
11448;BME280;43755;49.736;8.734;2024-02-21T09:55:39;98246.03;;;7.76;100.00
11448;BME280;43755;49.736;8.734;2024-02-21T09:57:41;98243.16;;;7.83;100.00
11448;BME280;43755;49.736;8.734;2024-02-21T09:59:46;98241.16;;;7.93;100.00
11448;BME280;43755;49.736;8.734;2024-02-21T10:01:48;98235.91;;;7.92;100.00
11448;BME280;43755;49.736;8.734;2024-02-21T10:03:50;98248.94;;;7.96;100.00
11448;BME280;43755;49.736;8.734;2024-02-21T10:05:52;98243.94;;;7.87;100.00
11448;BME280;43755;49.736;8.734;2024-02-21T10:07:55;98238.88;;;8.10;100.00
11448;BME280;43755;49.736;8.734;2024-02-21T10:10:00;98240.47;;;8.16;100.00
11448;BME280;43755;49.736;8.734;2024-02-21T10:12:09;98231.34;;;8.28;100.00
11448;BME280;43755;49.736;8.734;2024-02-21T10:14:11;98234.50;;;8.40;100.00
11448;BME280;43755;49.736;8.734;2024-02-21T10:16:15;98227.31;;;8.45;100.00
11448;BME280;43755;49.736;8.734;2024-02-21T10:18:17;98226.03;;;8.58;100.00
11448;BME280;43755;49.736;8.734;2024-02-21T10:20:19;98231.59;;;8.49;100.00
11448;BME280;43755;49.736;8.734;2024-02-21T10:22:20;98225.13;;;8.59;100.00
11448;BME280;43755;49.736;8.734;2024-02-21T10:24:26;98220.31;;;8.72;100.00
11448;BME280;43755;49.736;8.734;2024-02-21T10:26:28;98218.22;;;8.83;100.00
11448;BME280;43755;49.736;8.734;2024-02-21T10:28:29;98211.22;;;8.82;100.00
11448;BME280;43755;49.736;8.734;2024-02-21T10:30:30;98215.81;;;8.76;100.00
11448;BME280;43755;49.736;8.734;2024-02-21T10:32:33;98212.34;;;8.74;100.00
11448;BME280;43755;49.736;8.734;2024-02-21T10:34:35;98206.78;;;8.55;100.00
11448;BME280;43755;49.736;8.734;2024-02-21T10:36:37;98205.66;;;8.36;100.00
11448;BME280;43755;49.736;8.734;2024-02-21T10:38:38;98201.91;;;8.43;100.00
11448;BME280;43755;49.736;8.734;2024-02-21T10:40:40;98197.56;;;8.42;100.00
11448;BME280;43755;49.736;8.734;2024-02-21T10:42:42;98196.34;;;8.52;100.00
11448;BME280;43755;49.736;8.734;2024-02-21T10:44:45;98202.22;;;8.60;100.00
11448;BME280;43755;49.736;8.734;2024-02-21T10:46:49;98187.44;;;8.56;100.00